createdAt,value
2018-01-12T00:00:15.500Z,31.10
2018-01-12T00:02:41.935Z,30.77
2018-01-12T00:05:08.480Z,32.93
2018-01-12T00:07:34.872Z,31.53
2018-01-12T00:10:01.251Z,31.37
2018-01-12T00:12:27.723Z,31.47
2018-01-12T00:14:54.093Z,31.40
2018-01-12T00:17:20.488Z,31.20
2018-01-12T00:19:46.876Z,29.93
2018-01-12T00:22:13.229Z,30.73
2018-01-12T00:24:39.680Z,31.63
2018-01-12T00:27:06.213Z,30.83
2018-01-12T00:29:32.631Z,32.10
2018-01-12T00:31:58.991Z,32.17
2018-01-12T00:34:25.367Z,31.70
2018-01-12T00:36:51.779Z,30.97
2018-01-12T00:39:18.229Z,30.67
2018-01-12T00:41:44.615Z,30.80
2018-01-12T00:44:11.024Z,30.60
2018-01-12T00:46:37.483Z,31.13
2018-01-12T00:49:03.909Z,31.77
2018-01-12T00:51:30.376Z,30.20
2018-01-12T00:53:56.964Z,32.67
2018-01-12T00:56:23.764Z,31.57
2018-01-12T00:58:50.472Z,32.83
2018-01-12T01:01:17.041Z,32.03
2018-01-12T01:03:43.567Z,32.00
2018-01-12T01:06:10.051Z,33.93
2018-01-12T01:08:36.599Z,33.33
2018-01-12T01:11:03.035Z,33.80
2018-01-12T01:13:29.367Z,33.97
2018-01-12T01:15:55.799Z,34.87
2018-01-12T01:18:22.192Z,33.37
2018-01-12T01:20:48.600Z,34.90
2018-01-12T01:23:15.036Z,33.07
2018-01-12T01:25:41.460Z,34.67
2018-01-12T01:28:07.783Z,32.73
2018-01-12T01:30:34.211Z,34.33
2018-01-12T01:33:00.669Z,34.00
2018-01-12T01:35:27.071Z,32.13
2018-01-12T01:37:53.507Z,34.40
2018-01-12T01:40:19.936Z,32.13
2018-01-12T01:42:46.382Z,31.90
2018-01-12T01:45:12.755Z,32.13
2018-01-12T01:47:39.141Z,33.83
2018-01-12T01:50:05.526Z,30.83
2018-01-12T01:52:31.947Z,30.50
2018-01-12T01:54:58.376Z,31.53
2018-01-12T01:57:24.771Z,30.70
2018-01-12T01:59:51.196Z,32.90
2018-01-12T02:02:17.588Z,32.40
2018-01-12T02:04:43.967Z,33.97
2018-01-12T02:07:10.343Z,35.77
2018-01-12T02:09:36.721Z,32.67
2018-01-12T02:12:03.088Z,32.80
2018-01-12T02:14:29.505Z,34.43
2018-01-12T02:16:55.947Z,34.50
2018-01-12T02:19:22.359Z,33.23
2018-01-12T02:21:48.903Z,33.43
2018-01-12T02:24:15.301Z,34.53
2018-01-12T02:26:42.335Z,34.40
2018-01-12T02:29:08.766Z,36.07
2018-01-12T02:31:35.492Z,33.97
2018-01-12T02:34:01.904Z,34.63
2018-01-12T02:36:28.287Z,34.63
2018-01-12T02:38:54.688Z,35.73
2018-01-12T02:41:21.116Z,34.53
2018-01-12T02:43:47.543Z,33.80
2018-01-12T02:46:13.895Z,32.33
2018-01-12T02:48:40.283Z,34.20
2018-01-12T02:51:06.644Z,32.80
2018-01-12T02:53:33.033Z,33.83
2018-01-12T02:55:59.408Z,33.53
2018-01-12T02:58:25.815Z,32.83
2018-01-12T03:00:52.192Z,32.93
2018-01-12T03:03:18.659Z,32.40
2018-01-12T03:05:45.000Z,33.30
2018-01-12T03:08:11.403Z,33.80
2018-01-12T03:10:37.803Z,31.97
2018-01-12T03:13:04.158Z,32.97
2018-01-12T03:15:30.503Z,32.80
2018-01-12T03:17:56.883Z,32.10
2018-01-12T03:20:23.266Z,34.20
2018-01-12T03:22:49.943Z,33.57
2018-01-12T03:25:16.367Z,32.90
2018-01-12T03:27:42.772Z,32.17
2018-01-12T03:30:09.135Z,34.23
2018-01-12T03:32:35.515Z,32.53
2018-01-12T03:35:01.931Z,32.33
2018-01-12T03:37:28.363Z,31.03
2018-01-12T03:39:54.720Z,31.73
2018-01-12T03:42:21.043Z,33.53
2018-01-12T03:44:47.464Z,31.17
2018-01-12T03:47:13.880Z,30.50
2018-01-12T03:49:40.351Z,32.70
2018-01-12T03:52:06.768Z,33.00
2018-01-12T03:54:33.240Z,34.23
2018-01-12T03:56:59.611Z,32.40
2018-01-12T03:59:26.203Z,33.30
2018-01-12T04:01:52.636Z,31.70
2018-01-12T04:04:19.044Z,32.33
2018-01-12T04:06:45.507Z,33.70
2018-01-12T04:09:11.864Z,32.77
2018-01-12T04:11:38.267Z,32.43
2018-01-12T04:14:04.671Z,33.50
2018-01-12T04:16:31.107Z,32.77
2018-01-12T04:18:57.523Z,32.27
2018-01-12T04:21:23.911Z,33.10
2018-01-12T04:23:50.368Z,33.77
2018-01-12T04:26:16.742Z,32.20
2018-01-12T04:28:43.137Z,33.77
2018-01-12T04:31:09.547Z,32.87
2018-01-12T04:33:35.903Z,34.03
2018-01-12T04:36:02.290Z,34.00
2018-01-12T04:38:28.796Z,32.97
2018-01-12T04:40:55.280Z,33.87
2018-01-12T04:43:21.639Z,35.63
2018-01-12T04:45:48.043Z,34.67
2018-01-12T04:48:14.420Z,36.20
2018-01-12T04:50:40.843Z,35.63
2018-01-12T04:53:07.216Z,34.57
2018-01-12T04:55:33.567Z,35.33
2018-01-12T04:57:59.912Z,36.53
2018-01-12T05:00:26.352Z,33.70
2018-01-12T05:02:52.756Z,36.30
2018-01-12T05:05:19.312Z,39.13
2018-01-12T05:07:45.731Z,39.23
2018-01-12T05:10:12.121Z,43.90
2018-01-12T05:12:38.580Z,37.23
2018-01-12T05:15:05.014Z,40.40
2018-01-12T05:17:31.500Z,41.80
2018-01-12T05:19:57.920Z,37.67
2018-01-12T05:22:24.307Z,39.20
2018-01-12T05:24:50.687Z,37.80
2018-01-12T05:27:17.059Z,36.10
2018-01-12T05:29:43.431Z,35.83
2018-01-12T05:32:09.769Z,37.83
2018-01-12T05:34:36.280Z,36.40
2018-01-12T05:37:02.772Z,35.10
2018-01-12T05:39:29.131Z,34.47
2018-01-12T05:41:55.548Z,35.30
2018-01-12T05:44:21.976Z,40.63
2018-01-12T05:46:48.387Z,40.17
2018-01-12T05:49:14.755Z,44.30
2018-01-12T05:51:41.108Z,49.13
2018-01-12T05:54:07.480Z,50.90
2018-01-12T05:56:33.830Z,50.13
2018-01-12T05:59:00.228Z,47.73
2018-01-12T06:01:38.747Z,42.53
2018-01-12T06:04:17.243Z,38.17
2018-01-12T06:06:43.580Z,37.73
2018-01-12T06:09:09.964Z,39.93
2018-01-12T06:11:36.307Z,41.13
2018-01-12T06:14:02.712Z,42.40
2018-01-12T06:16:29.152Z,36.20
2018-01-12T06:18:55.555Z,44.17
2018-01-12T06:21:21.996Z,52.87
2018-01-12T06:23:48.436Z,71.40
2018-01-12T06:26:14.796Z,63.77
2018-01-12T06:28:41.333Z,63.33
2018-01-12T06:31:07.695Z,66.33
2018-01-12T06:33:34.063Z,67.07
2018-01-12T06:36:00.548Z,67.10
2018-01-12T06:38:26.911Z,62.47
2018-01-12T06:40:53.443Z,65.43
2018-01-12T06:43:19.879Z,60.40
2018-01-12T06:45:46.305Z,57.07
2018-01-12T06:48:12.657Z,56.73
2018-01-12T06:50:39.061Z,54.33
2018-01-12T06:53:05.457Z,51.07
2018-01-12T06:55:31.912Z,51.80
2018-01-12T06:57:58.264Z,51.63
2018-01-12T07:00:24.691Z,53.37
2018-01-12T07:02:51.099Z,55.20
2018-01-12T07:05:17.435Z,57.40
2018-01-12T07:07:43.855Z,56.57
2018-01-12T07:10:10.255Z,57.43
2018-01-12T07:12:36.608Z,58.10
2018-01-12T07:15:03.043Z,59.33
2018-01-12T07:17:29.464Z,57.87
2018-01-12T07:19:55.924Z,61.40
2018-01-12T07:22:26.807Z,58.37
2018-01-12T07:24:53.296Z,56.07
2018-01-12T07:27:19.763Z,55.10
2018-01-12T07:29:46.200Z,56.10
2018-01-12T07:32:12.620Z,59.00
2018-01-12T07:34:38.984Z,60.33
2018-01-12T07:37:05.388Z,57.60
2018-01-12T07:39:31.747Z,54.23
2018-01-12T07:41:58.208Z,48.33
2018-01-12T07:44:24.622Z,62.73
2018-01-12T07:46:51.083Z,47.97
2018-01-12T07:49:17.492Z,38.47
2018-01-12T07:51:43.916Z,39.90
2018-01-12T07:54:10.304Z,39.20
2018-01-12T07:56:36.780Z,41.83
2018-01-12T07:59:03.159Z,38.57
2018-01-12T08:01:35.508Z,33.57
2018-01-12T08:04:01.959Z,29.63
2018-01-12T08:06:28.363Z,32.03
2018-01-12T08:08:54.723Z,33.57
2018-01-12T08:11:21.095Z,34.57
2018-01-12T08:13:47.495Z,34.80
2018-01-12T08:16:13.887Z,35.50
2018-01-12T08:18:40.371Z,31.53
2018-01-12T08:21:06.779Z,33.47
2018-01-12T08:23:33.228Z,31.77
2018-01-12T08:25:59.664Z,33.80
2018-01-12T08:28:26.039Z,35.17
2018-01-12T08:30:52.435Z,35.37
2018-01-12T08:33:19.719Z,35.93
2018-01-12T08:35:46.137Z,34.63
2018-01-12T08:38:12.522Z,29.63
2018-01-12T08:40:38.883Z,31.57
2018-01-12T08:43:05.283Z,32.00
2018-01-12T08:45:31.724Z,33.93
2018-01-12T08:47:58.060Z,33.93
2018-01-12T08:50:24.584Z,35.47
2018-01-12T08:52:51.022Z,35.87
2018-01-12T08:55:17.398Z,35.03
2018-01-12T08:57:43.789Z,33.07
2018-01-12T09:00:10.264Z,34.00
2018-01-12T09:02:36.647Z,35.37
2018-01-12T09:05:03.108Z,40.17
2018-01-12T09:07:29.572Z,27.33
2018-01-12T09:09:55.979Z,28.67
2018-01-12T09:12:22.464Z,26.10
2018-01-12T09:14:50.081Z,26.47
2018-01-12T09:17:28.804Z,27.23
2018-01-12T09:20:07.492Z,27.63
2018-01-12T09:22:48.952Z,30.23
2018-01-12T09:25:25.368Z,33.53
2018-01-12T09:27:51.803Z,32.80
2018-01-12T09:30:18.255Z,26.23
2018-01-12T09:32:44.754Z,27.83
2018-01-12T09:35:11.187Z,22.67
2018-01-12T09:37:39.832Z,24.07
2018-01-12T09:40:27.336Z,23.57
2018-01-12T09:42:53.746Z,22.00
2018-01-12T09:45:20.103Z,20.13
2018-01-12T09:47:58.691Z,17.73
2018-01-12T09:50:25.090Z,18.77
2018-01-12T09:52:51.564Z,18.57
2018-01-12T09:55:18.007Z,17.50
2018-01-12T09:57:44.383Z,17.60
2018-01-12T10:13:38.625Z,13.03
2018-01-12T10:16:04.974Z,13.17
2018-01-12T10:18:34.540Z,13.03
2018-01-12T10:21:05.859Z,13.57
2018-01-12T10:23:32.344Z,13.13
2018-01-12T10:25:58.727Z,12.77
2018-01-12T10:28:25.171Z,14.40
2018-01-12T10:30:58.227Z,16.00
2018-01-12T10:47:04.467Z,19.97
2018-01-12T10:49:32.891Z,20.47
2018-01-12T10:52:06.115Z,31.57
2018-01-12T10:54:32.519Z,23.63
2018-01-12T10:56:58.947Z,25.43
2018-01-12T10:59:25.307Z,25.20
2018-01-12T11:01:51.709Z,21.43
2018-01-12T11:04:18.248Z,22.53
2018-01-12T11:06:44.692Z,19.27
2018-01-12T11:09:11.127Z,19.33
2018-01-12T11:11:37.575Z,20.57
2018-01-12T11:14:03.975Z,19.43
2018-01-12T11:16:30.357Z,15.70
2018-01-12T11:18:56.720Z,15.80
2018-01-12T11:21:23.095Z,15.43
2018-01-12T11:23:49.527Z,17.70
2018-01-12T11:26:15.956Z,18.17
2018-01-12T11:28:42.371Z,18.53
2018-01-12T11:31:08.872Z,18.13
2018-01-12T11:33:35.267Z,13.73
2018-01-12T11:36:01.643Z,16.70
2018-01-12T11:38:28.092Z,14.17
2018-01-12T11:40:54.493Z,17.20
2018-01-12T11:43:20.959Z,17.97
2018-01-12T11:45:47.407Z,20.83
2018-01-12T11:48:13.891Z,16.20
2018-01-12T11:50:40.275Z,17.03
2018-01-12T11:53:06.711Z,16.80
2018-01-12T11:55:33.157Z,14.33
2018-01-12T11:58:01.393Z,11.57
2018-01-12T12:00:28.801Z,10.67
2018-01-12T12:02:57.301Z,11.17
2018-01-12T12:05:25.338Z,12.67
2018-01-12T12:07:53.109Z,13.30
2018-01-12T12:10:27.231Z,11.67
2018-01-12T12:12:54.099Z,11.97
2018-01-12T12:15:22.730Z,13.90
2018-01-12T12:17:51.845Z,12.03
2018-01-12T12:20:20.282Z,13.03
2018-01-12T12:22:47.418Z,11.53
2018-01-12T12:25:14.155Z,11.27
2018-01-12T12:27:40.667Z,10.80
2018-01-12T12:30:07.120Z,10.80
2018-01-12T12:32:33.536Z,10.53
2018-01-12T12:34:59.981Z,12.83
2018-01-12T12:37:26.438Z,14.33
2018-01-12T12:39:52.863Z,13.13
2018-01-12T12:42:19.221Z,13.80
2018-01-12T12:44:45.676Z,14.87
2018-01-12T12:47:12.145Z,13.13
2018-01-12T12:49:38.531Z,16.07
2018-01-12T12:52:04.934Z,14.33
2018-01-12T12:54:31.374Z,13.93
2018-01-12T12:56:57.820Z,13.20
2018-01-12T12:59:24.232Z,12.27
2018-01-12T13:01:50.623Z,13.87
2018-01-12T13:04:17.005Z,14.57
2018-01-12T13:06:43.423Z,18.90
2018-01-12T13:09:09.845Z,23.33
2018-01-12T13:11:36.207Z,22.00
2018-01-12T13:14:02.608Z,23.63
2018-01-12T13:16:29.011Z,26.23
2018-01-12T13:18:55.637Z,27.03
2018-01-12T13:21:22.047Z,26.13
2018-01-12T13:23:48.408Z,25.33
2018-01-12T13:26:14.807Z,27.37
2018-01-12T13:28:41.287Z,28.53
2018-01-12T13:31:07.666Z,24.60
2018-01-12T13:33:34.060Z,24.90
2018-01-12T13:36:00.544Z,25.90
2018-01-12T13:38:26.911Z,22.13
2018-01-12T13:40:53.316Z,23.60
2018-01-12T13:43:19.755Z,25.87
2018-01-12T13:45:46.135Z,24.73
2018-01-12T13:48:12.516Z,26.37
2018-01-12T13:50:38.907Z,22.03
2018-01-12T13:53:05.267Z,25.47
2018-01-12T13:55:31.639Z,28.70
2018-01-12T13:57:58.016Z,27.60
2018-01-12T14:00:24.483Z,27.40
2018-01-12T14:02:50.850Z,26.07
2018-01-12T14:05:17.278Z,26.97
2018-01-12T14:07:43.744Z,25.20
2018-01-12T14:10:10.115Z,27.73
2018-01-12T14:12:36.503Z,28.87
2018-01-12T14:15:02.979Z,31.13
2018-01-12T14:17:29.375Z,26.00
2018-01-12T14:19:55.710Z,26.37
2018-01-12T14:22:22.099Z,23.17
2018-01-12T14:24:48.460Z,22.10
2018-01-12T14:27:14.915Z,19.63
2018-01-12T14:29:41.347Z,18.63
2018-01-12T14:32:07.711Z,16.23
2018-01-12T14:34:34.067Z,16.13
2018-01-12T14:37:00.476Z,14.20
2018-01-12T14:39:26.886Z,14.47
2018-01-12T14:41:53.270Z,16.90
2018-01-12T14:44:19.644Z,19.07
2018-01-12T14:46:46.027Z,15.10
2018-01-12T14:49:12.553Z,21.33
2018-01-12T14:51:39.011Z,24.27
2018-01-12T14:54:05.420Z,27.83
2018-01-12T14:56:31.899Z,23.63
2018-01-12T14:58:58.290Z,21.90
2018-01-12T15:01:24.714Z,23.07
2018-01-12T15:03:51.134Z,25.07
2018-01-12T15:06:17.513Z,23.27
2018-01-12T15:08:43.975Z,24.90
2018-01-12T15:11:10.388Z,25.33
2018-01-12T15:13:36.763Z,24.70
2018-01-12T15:16:03.172Z,28.37
2018-01-12T15:18:29.640Z,21.40
2018-01-12T15:20:56.052Z,25.17
2018-01-12T15:23:22.448Z,27.70
2018-01-12T15:25:48.799Z,31.03
2018-01-12T15:28:15.227Z,28.90
2018-01-12T15:30:41.659Z,31.23
2018-01-12T15:33:08.091Z,39.13
2018-01-12T15:35:34.534Z,38.53
2018-01-12T15:38:00.972Z,39.07
2018-01-12T15:40:27.408Z,44.90
2018-01-12T15:42:53.783Z,41.57
2018-01-12T15:45:20.215Z,42.77
2018-01-12T15:47:46.591Z,43.33
2018-01-12T15:50:12.983Z,41.77
2018-01-12T15:52:39.384Z,36.03
2018-01-12T15:55:05.799Z,38.77
2018-01-12T15:57:32.160Z,39.80
2018-01-12T15:59:58.587Z,39.07
2018-01-12T16:02:25.094Z,42.60
2018-01-12T16:04:51.436Z,41.07
2018-01-12T16:07:17.858Z,46.47
2018-01-12T16:09:44.274Z,42.97
2018-01-12T16:12:10.651Z,41.03
2018-01-12T16:14:37.061Z,40.37
2018-01-12T16:17:03.495Z,28.47
2018-01-12T16:19:29.823Z,33.37
2018-01-12T16:21:56.319Z,38.03
2018-01-12T16:24:22.720Z,36.53
2018-01-12T16:26:49.124Z,38.50
2018-01-12T16:29:15.504Z,27.37
2018-01-12T16:31:41.992Z,31.13
2018-01-12T16:34:08.404Z,35.97
2018-01-12T16:36:34.756Z,34.47
2018-01-12T16:39:01.225Z,26.30
2018-01-12T16:41:27.669Z,27.27
2018-01-12T16:43:54.148Z,29.63
2018-01-12T16:46:20.482Z,21.73
2018-01-12T16:48:46.868Z,21.40
2018-01-12T16:51:13.394Z,21.00
2018-01-12T16:53:39.804Z,19.17
2018-01-12T16:56:06.167Z,16.83
2018-01-12T16:58:32.627Z,15.97
2018-01-12T17:00:59.111Z,16.60
2018-01-12T17:03:25.493Z,16.93
2018-01-12T17:05:51.875Z,20.57
2018-01-12T17:08:18.335Z,22.93
2018-01-12T17:10:44.704Z,20.70
2018-01-12T17:13:11.138Z,23.10
2018-01-12T17:15:37.537Z,19.70
2018-01-12T17:18:03.890Z,24.87
2018-01-12T17:20:30.347Z,29.50
2018-01-12T17:22:56.731Z,22.20
2018-01-12T17:25:23.144Z,22.00
2018-01-12T17:27:49.680Z,22.50
2018-01-12T17:30:16.063Z,22.90
2018-01-12T17:32:42.439Z,24.70
2018-01-12T17:35:08.842Z,19.77
2018-01-12T17:37:35.380Z,22.47
2018-01-12T17:40:01.719Z,19.97
2018-01-12T17:42:28.181Z,19.20
2018-01-12T17:44:54.583Z,17.20
2018-01-12T17:47:20.959Z,14.07
2018-01-12T17:49:47.669Z,12.53
2018-01-12T17:52:14.128Z,10.73
2018-01-12T17:54:40.515Z,12.17
2018-01-12T17:57:06.878Z,11.00
2018-01-12T17:59:33.321Z,11.23
2018-01-12T18:01:59.708Z,11.17
2018-01-12T18:04:26.116Z,10.80
2018-01-12T18:06:52.604Z,14.43
2018-01-12T18:09:18.988Z,13.33
2018-01-12T18:11:45.367Z,11.47
2018-01-12T18:14:11.811Z,8.50
2018-01-12T18:16:38.814Z,10.57
2018-01-12T18:29:11.011Z,9.10
2018-01-12T18:31:38.913Z,8.93
2018-01-12T18:34:06.486Z,7.87
2018-01-12T18:36:34.845Z,9.70
2018-01-12T18:39:04.919Z,8.40
2018-01-12T18:41:32.457Z,8.00
2018-01-12T18:44:07.935Z,11.00
2018-01-12T18:46:36.066Z,9.13
2018-01-12T18:49:02.757Z,9.90
2018-01-12T18:51:30.705Z,9.80
2018-01-12T18:53:59.668Z,8.40
2018-01-12T18:56:28.179Z,9.60
2018-01-12T18:58:55.593Z,10.20
2018-01-12T19:01:22.899Z,10.20
2018-01-12T19:03:49.574Z,9.00
2018-01-12T19:06:17.045Z,10.53
2018-01-12T19:08:48.109Z,10.87
2018-01-12T19:11:18.766Z,9.87
2018-01-12T19:13:45.247Z,8.60
2018-01-12T19:16:11.788Z,8.53
2018-01-12T19:18:38.216Z,9.50
2018-01-12T19:21:04.591Z,10.63
2018-01-12T19:23:31.012Z,12.03
2018-01-12T19:25:57.542Z,11.27
2018-01-12T19:28:24.078Z,11.23
2018-01-12T19:30:50.503Z,10.60
2018-01-12T19:33:16.935Z,12.00
2018-01-12T19:35:43.329Z,10.57
2018-01-12T19:38:09.858Z,10.33
2018-01-12T19:40:36.267Z,11.10
2018-01-12T19:43:02.794Z,10.17
2018-01-12T19:45:29.231Z,10.93
2018-01-12T19:47:55.816Z,9.60
2018-01-12T19:50:22.200Z,10.93
2018-01-12T19:52:48.624Z,10.97
2018-01-12T19:55:15.014Z,11.30
2018-01-12T19:57:41.419Z,10.60
2018-01-12T20:00:07.855Z,11.77
2018-01-12T20:02:34.319Z,9.97
2018-01-12T20:05:00.708Z,8.50
2018-01-12T20:07:27.139Z,9.07
2018-01-12T20:09:53.596Z,10.07
2018-01-12T20:12:19.983Z,10.37
2018-01-12T20:14:46.438Z,10.80
2018-01-12T20:17:12.841Z,10.93
2018-01-12T20:19:39.220Z,13.80
2018-01-12T20:22:05.652Z,12.40
2018-01-12T20:24:32.065Z,10.20
2018-01-12T20:26:58.464Z,10.77
2018-01-12T20:29:24.858Z,11.37
2018-01-12T20:31:51.342Z,9.07
2018-01-12T20:34:17.779Z,9.17
2018-01-12T20:36:44.178Z,8.40
2018-01-12T20:39:10.592Z,7.10
2018-01-12T20:41:36.967Z,8.37
2018-01-12T20:44:03.435Z,8.33
2018-01-12T20:46:29.810Z,9.30
2018-01-12T20:48:56.323Z,10.43
2018-01-12T20:51:22.752Z,10.20
2018-01-12T20:53:49.329Z,11.07
2018-01-12T20:56:15.721Z,9.83
2018-01-12T20:58:42.083Z,9.90
2018-01-12T21:01:08.532Z,9.57
2018-01-12T21:03:34.942Z,12.07
2018-01-12T21:06:01.297Z,11.47
2018-01-12T21:08:27.671Z,13.67
2018-01-12T21:10:54.119Z,12.27
2018-01-12T21:13:20.523Z,11.93
2018-01-12T21:15:47.879Z,10.40
2018-01-12T21:18:14.361Z,10.13
2018-01-12T21:20:40.893Z,8.17
2018-01-12T21:23:07.263Z,8.87
2018-01-12T21:25:33.715Z,9.80
2018-01-12T21:28:00.178Z,10.40
2018-01-12T21:30:26.560Z,8.30
2018-01-12T21:32:53.044Z,7.97
2018-01-12T21:35:19.403Z,6.70
2018-01-12T21:37:45.740Z,5.90
2018-01-12T21:40:12.099Z,7.87
2018-01-12T21:42:38.577Z,7.07
2018-01-12T21:45:05.247Z,7.43
2018-01-12T21:47:31.623Z,6.70
2018-01-12T21:49:58.039Z,6.87
2018-01-12T21:52:24.566Z,7.03
2018-01-12T21:54:51.017Z,6.57
2018-01-12T21:57:17.467Z,6.63
2018-01-12T21:59:43.830Z,6.90
2018-01-12T22:02:10.240Z,6.97
2018-01-12T22:04:36.882Z,8.03
2018-01-12T22:07:03.287Z,7.70
2018-01-12T22:09:29.690Z,6.50
2018-01-12T22:11:56.100Z,6.10
2018-01-12T22:14:22.447Z,8.03
2018-01-12T22:16:48.847Z,7.20
2018-01-12T22:19:15.271Z,7.77
2018-01-12T22:21:41.602Z,8.13
2018-01-12T22:24:07.976Z,9.10
2018-01-12T22:26:34.528Z,8.80
2018-01-12T22:29:01.012Z,8.53
2018-01-12T22:31:27.379Z,9.77
2018-01-12T22:33:53.832Z,9.97
2018-01-12T22:36:20.339Z,10.03
2018-01-12T22:38:46.765Z,10.73
2018-01-12T22:41:13.148Z,9.17
2018-01-12T22:43:39.507Z,9.27
2018-01-12T22:46:05.858Z,9.63
2018-01-12T22:48:32.287Z,9.57
2018-01-12T22:50:58.641Z,10.23
2018-01-12T22:53:25.024Z,10.40
2018-01-12T22:55:51.387Z,9.80
2018-01-12T22:58:17.739Z,11.40
2018-01-12T23:00:44.227Z,12.07
2018-01-12T23:03:10.608Z,10.90
2018-01-12T23:05:36.991Z,10.83
2018-01-12T23:08:03.349Z,9.63
2018-01-12T23:10:29.707Z,9.33
2018-01-12T23:12:56.080Z,11.70
2018-01-12T23:15:22.471Z,10.47
2018-01-12T23:17:48.837Z,10.20
2018-01-12T23:20:15.191Z,10.33
2018-01-12T23:22:41.593Z,8.37
2018-01-12T23:25:08.028Z,8.37
2018-01-12T23:27:34.666Z,8.97
2018-01-12T23:30:00.975Z,8.33
2018-01-12T23:32:27.374Z,8.43
2018-01-12T23:34:53.726Z,8.10
2018-01-12T23:37:20.100Z,8.43
2018-01-12T23:39:46.528Z,7.53
2018-01-12T23:42:12.904Z,7.97
2018-01-12T23:44:39.272Z,8.33
2018-01-12T23:47:05.760Z,7.80
2018-01-12T23:49:32.135Z,8.53
2018-01-12T23:51:58.554Z,9.20
2018-01-12T23:54:24.990Z,8.00
2018-01-12T23:56:51.327Z,7.73
2018-01-12T23:59:17.807Z,8.33
